LTAFLTCJ

Guest
Details From LTAF - ADANA
To LTCJ - BATMAN
Flight Number -
Tags generated
Created
Modified
Stats Distance 291 nm / 539 km
Max Altitude 35,000 ft / 10,668 m
Waypoints 7
Social Downloads 1
Likes 0
Share VATSIM

Download

Looking for another format? Having issues loading an existing format? Contact us
Advertisement - Login to hide

Notes

Basic altitude profile: - Ascent Rate: 2500ft/min - Ascent Speed: 250kts - Cruise Altitude: 35000ft - Cruise Speed: 420kts - Descent Rate: 1500ft/min - Descent Speed: 250kts Options: - Use NATs: yes - Use PACOTS: yes - Use low airways: yes - Use high airways: yes

Route

LTAF GAZ UW74 OZBEY LTCJ

ID Type Via Altitude Latitude Longitude Leg Dist Tot Dist Heading (true) Name
O LTAF APT - 0 ft / 0 m 36.98214˚ 35.28039˚ - 0 nm - ADANA
GAZ NDB - 35,000 ft / 10,668 m 36.95028˚ 37.47333˚ 105 nm 105 nm 90° / 92° OGUZELI NDB
NIZIP FIX UW74 (AWY-HI) 35,000 ft / 10,668 m 36.98472˚ 37.76667˚ 14 nm 119 nm 82° / 82° -
SURUC FIX UW74 (AWY-HI) 27,700 ft / 8,443 m 37.06667˚ 38.54167˚ 37 nm 156 nm 82° / 83° -
URF NDB UW74 (AWY-HI) 27,500 ft / 8,382 m 37.09389˚ 38.84472˚ 14 nm 171 nm 83° / 84° SANLIURFA NDB
OZBEY FIX UW74 (AWY-HI) 27,500 ft / 8,382 m 37.24167˚ 39.09444˚ 14 nm 186 nm 53° / 53° -
O LTCJ APT - 0 ft / 0 m 37.92897˚ 41.11658˚ 104 nm 291 nm 66° / 67° BATMAN

Altitude Profile

Advertisement - Login to hide

Weather


0- 5 10 15 20 25 30 35+ Temperature / ° C

Clouds and Precipitation
Forecast for 2017-12-18 12:00 UTC. Updated 2 hours ago

Ground ~20,000 ft ~40,000 ft Winds

LTAF

Details ICAO LTAF (ADA)
Name ADANA
Region Turkey
Timezone Europe/Istanbul (UTC+3.0)
Stats Elevation 65 ft / 20 m (AMSL)
Location 36.982142° 35.280394°
Runways 1
Magnetic Variation 5.354° E

METAR

LTAF 181050Z 04004KT 310V110 9999 FEW040 BKN100 20/08 Q1019 NOSIG RMK RWY23 06004KT 030V110

Decode

TAF

Not found

Departure Runways

ID Width Length Bearing (true) Bearing (mag) Surface Threshold Offset Overrun Length
05 148 ft / 45 m 8,979 ft / 2,737 m 53.45° 48.10° Asphalt 0 ft / 0 m 197 ft / 60 m
23 148 ft / 45 m 8,979 ft / 2,737 m 233.47° 228.12° Asphalt 0 ft / 0 m 197 ft / 60 m

LTCJ

Details ICAO LTCJ (BAL)
Name BATMAN
Region Turkey
Timezone Europe/Istanbul (UTC+3.0)
Stats Elevation 1,822 ft / 555 m (AMSL)
Location 37.928970° 41.116585°
Runways 1
Magnetic Variation 5.653° E

METAR

LTCJ 181050Z VRB01KT CAVOK 14/03 Q1024 RMK RWY20 VRB01KT

Decode

TAF

Not found

Destination Runways

ID Width Length Bearing (true) Bearing (mag) Surface Threshold Offset Overrun Length
02 150 ft / 46 m 10,018 ft / 3,054 m 25.56° 19.91° Asphalt 0 ft / 0 m 495 ft / 151 m
20 150 ft / 46 m 10,018 ft / 3,054 m 205.57° 199.92° Asphalt 0 ft / 0 m 495 ft / 151 m

Popular Alternatives